createdAt,value
2023-04-03T00:00:32.891Z,99143.76
2023-04-03T00:03:20.185Z,99145.04
2023-04-03T00:05:48.609Z,99144.73
2023-04-03T00:08:15.784Z,99140.39
2023-04-03T00:10:43.078Z,99143.08
2023-04-03T00:13:10.090Z,99138.46
2023-04-03T00:15:38.476Z,99141.45
2023-04-03T00:18:25.128Z,99142.17
2023-04-03T00:20:51.934Z,99142.49
2023-04-03T00:23:18.983Z,99144.62
2023-04-03T00:25:52.574Z,99146.89
2023-04-03T00:28:21.080Z,99145.88
2023-04-03T00:30:49.753Z,99144.73
2023-04-03T00:33:17.919Z,99145.88
2023-04-03T00:35:45.736Z,99143.23
2023-04-03T00:38:12.832Z,99142.96
2023-04-03T00:40:42.488Z,99140.55
2023-04-03T00:43:12.565Z,99139.78
2023-04-03T00:45:41.863Z,99142.29
2023-04-03T00:48:10.700Z,99138.11
2023-04-03T00:50:40.776Z,99138.85
2023-04-03T00:53:12.226Z,99140.59
2023-04-03T00:55:39.487Z,99142.30
2023-04-03T00:58:07.657Z,99136.03
2023-04-03T01:00:38.087Z,99138.53
2023-04-03T01:03:05.768Z,99136.27
2023-04-03T01:05:33.729Z,99136.78
2023-04-03T01:08:00.664Z,99134.10
2023-04-03T01:10:29.068Z,99137.33
2023-04-03T01:12:55.824Z,99135.25
2023-04-03T01:15:24.931Z,99135.45
2023-04-03T01:17:52.185Z,99135.33
2023-04-03T01:26:51.593Z,99139.13
2023-04-03T01:29:20.680Z,99137.36
2023-04-03T01:31:54.117Z,99139.60
2023-04-03T01:34:22.508Z,99138.64
2023-04-03T01:36:52.095Z,99141.90
2023-04-03T01:39:22.217Z,99140.58
2023-04-03T01:41:50.680Z,99141.31
2023-04-03T01:44:23.801Z,99142.14
2023-04-03T01:46:52.162Z,99143.73
2023-04-03T01:49:21.863Z,99144.14
2023-04-03T01:51:50.163Z,99146.74
2023-04-03T01:54:18.377Z,99143.95
2023-04-03T01:56:47.423Z,99144.47
2023-04-03T01:59:18.189Z,99143.23
2023-04-03T02:01:49.826Z,99145.67
2023-04-03T02:04:18.523Z,99143.40
2023-04-03T02:06:46.901Z,99143.73
2023-04-03T02:11:57.894Z,99148.48
2023-04-03T02:14:29.019Z,99148.48
2023-04-03T02:16:57.508Z,99146.23
2023-04-03T02:19:25.887Z,99147.04
2023-04-03T02:21:54.558Z,99148.48
2023-04-03T02:24:24.486Z,99146.73
2023-04-03T02:26:52.663Z,99147.17
2023-04-03T02:29:21.033Z,99150.83
2023-04-03T02:31:49.965Z,99150.55
2023-04-03T02:40:54.199Z,99151.20
2023-04-03T02:43:22.806Z,99149.48
2023-04-03T02:45:51.041Z,99150.61
2023-04-03T02:48:19.845Z,99153.96
2023-04-03T02:50:48.026Z,99154.52
2023-04-03T02:53:17.146Z,99155.17
2023-04-03T02:55:46.071Z,99155.29
2023-04-03T02:58:16.658Z,99158.07
2023-04-03T03:00:45.433Z,99158.78
2023-04-03T03:03:15.397Z,99161.73
2023-04-03T03:05:44.046Z,99156.13
2023-04-03T03:08:13.752Z,99159.04
2023-04-03T03:10:42.819Z,99157.05
2023-04-03T03:13:10.999Z,99153.76
2023-04-03T03:15:41.573Z,99157.67
2023-04-03T03:18:10.369Z,99157.13
2023-04-03T03:20:42.247Z,99154.23
2023-04-03T03:23:10.706Z,99155.76
2023-04-03T03:25:40.503Z,99156.33
2023-04-03T03:28:09.288Z,99155.88
2023-04-03T03:30:37.830Z,99159.98
2023-04-03T03:33:06.200Z,99156.64
2023-04-03T03:35:34.559Z,99155.70
2023-04-03T03:38:03.565Z,99158.09
2023-04-03T03:40:34.168Z,99159.13
2023-04-03T03:43:02.805Z,99161.64
2023-04-03T03:45:32.560Z,99162.73
2023-04-03T03:48:01.997Z,99164.09
2023-04-03T03:50:33.684Z,99167.31
2023-04-03T03:53:02.323Z,99170.17
2023-04-03T03:55:31.115Z,99167.38
2023-04-03T03:58:01.331Z,99170.12
2023-04-03T04:00:30.667Z,99164.82
2023-04-03T04:03:00.226Z,99171.92
2023-04-03T04:05:29.340Z,99170.92
2023-04-03T04:07:58.110Z,99170.89
2023-04-03T04:10:27.836Z,99176.66
2023-04-03T04:12:58.551Z,99179.27
2023-04-03T04:15:28.387Z,99179.33
2023-04-03T04:17:58.324Z,99180.02
2023-04-03T04:20:26.681Z,99177.64
2023-04-03T04:22:55.577Z,99181.86
2023-04-03T04:25:24.258Z,99183.95
2023-04-03T04:27:52.841Z,99185.76
2023-04-03T04:30:21.038Z,99189.95
2023-04-03T04:32:52.073Z,99188.55
2023-04-03T04:35:21.723Z,99182.30
2023-04-03T04:37:51.382Z,99188.83
2023-04-03T04:40:19.924Z,99186.95
2023-04-03T04:42:49.488Z,99185.02
2023-04-03T04:45:20.845Z,99188.15
2023-04-03T04:47:52.830Z,99184.69
2023-04-03T04:50:22.227Z,99185.94
2023-04-03T04:52:51.090Z,99189.58
2023-04-03T04:55:19.236Z,99189.15
2023-04-03T04:57:51.969Z,99187.08
2023-04-03T05:00:22.505Z,99189.39
2023-04-03T05:02:54.313Z,99190.95
2023-04-03T05:05:23.635Z,99186.58
2023-04-03T05:07:52.337Z,99191.77
2023-04-03T05:10:20.479Z,99193.80
2023-04-03T05:12:49.702Z,99194.77
2023-04-03T05:15:18.189Z,99194.00
2023-04-03T05:17:47.606Z,99195.30
2023-04-03T05:20:16.686Z,99193.95
2023-04-03T05:22:46.385Z,99196.71
2023-04-03T05:25:15.128Z,99194.10
2023-04-03T05:27:45.425Z,99198.49
2023-04-03T05:30:14.462Z,99201.02
2023-04-03T05:32:43.751Z,99205.13
2023-04-03T05:35:17.333Z,99207.08
2023-04-03T05:37:46.813Z,99207.88
2023-04-03T05:40:18.147Z,99207.52
2023-04-03T05:42:48.805Z,99212.70
2023-04-03T05:45:17.789Z,99211.89
2023-04-03T05:47:46.324Z,99210.75
2023-04-03T05:50:15.060Z,99211.54
2023-04-03T05:52:46.110Z,99212.77
2023-04-03T05:55:15.013Z,99216.48
2023-04-03T05:57:43.992Z,99220.41
2023-04-03T06:00:15.533Z,99222.52
2023-04-03T06:02:46.961Z,99219.98
2023-04-03T06:05:20.189Z,99220.37
2023-04-03T06:07:50.756Z,99224.36
2023-04-03T06:10:19.628Z,99228.61
2023-04-03T06:12:48.407Z,99229.48
2023-04-03T06:15:18.350Z,99229.71
2023-04-03T06:17:50.326Z,99233.13
2023-04-03T06:20:19.127Z,99236.66
2023-04-03T06:22:47.991Z,99235.31
2023-04-03T06:25:18.806Z,99234.77
2023-04-03T06:27:47.198Z,99234.89
2023-04-03T06:30:15.791Z,99240.01
2023-04-03T06:32:45.395Z,99240.02
2023-04-03T06:35:14.888Z,99239.83
2023-04-03T06:37:43.509Z,99243.52
2023-04-03T06:40:19.905Z,99246.70
2023-04-03T06:42:49.353Z,99248.02
2023-04-03T06:45:19.425Z,99246.30
2023-04-03T06:47:48.793Z,99251.77
2023-04-03T06:50:18.007Z,99249.73
2023-04-03T06:52:48.679Z,99250.93
2023-04-03T06:55:18.226Z,99253.58
2023-04-03T06:57:47.505Z,99258.54
2023-04-03T07:00:17.393Z,99255.67
2023-04-03T07:02:54.268Z,99259.71
2023-04-03T07:05:30.552Z,99263.02
2023-04-03T07:08:01.740Z,99259.41
2023-04-03T07:10:34.605Z,99264.47
2023-04-03T07:13:05.462Z,99266.52
2023-04-03T07:15:34.641Z,99262.56
2023-04-03T07:18:03.085Z,99272.24
2023-04-03T07:20:31.823Z,99272.44
2023-04-03T07:23:02.788Z,99274.25
2023-04-03T07:25:33.180Z,99271.84
2023-04-03T07:28:01.777Z,99271.74
2023-04-03T07:30:30.044Z,99272.72
2023-04-03T07:32:59.126Z,99270.43
2023-04-03T07:35:27.661Z,99273.31
2023-04-03T07:37:57.029Z,99275.13
2023-04-03T07:40:25.374Z,99276.87
2023-04-03T07:42:53.793Z,99271.11
2023-04-03T07:45:24.093Z,99272.27
2023-04-03T07:47:52.922Z,99273.46
2023-04-03T07:50:21.491Z,99271.02
2023-04-03T07:52:51.965Z,99276.41
2023-04-03T07:55:20.507Z,99276.72
2023-04-03T07:57:48.674Z,99277.72
2023-04-03T08:00:18.672Z,99276.27
2023-04-03T08:02:52.699Z,99282.16
2023-04-03T08:05:22.173Z,99286.09
2023-04-03T08:07:53.267Z,99288.34
2023-04-03T08:10:21.653Z,99292.84
2023-04-03T08:12:49.928Z,99293.54
2023-04-03T08:15:18.412Z,99295.54
2023-04-03T08:17:52.201Z,99296.16
2023-04-03T08:20:21.666Z,99299.27
2023-04-03T08:22:49.988Z,99302.08
2023-04-03T08:25:18.989Z,99300.15
2023-04-03T08:27:47.324Z,99301.06
2023-04-03T08:30:16.056Z,99300.14
2023-04-03T08:32:45.597Z,99305.20
2023-04-03T08:35:14.573Z,99306.94
2023-04-03T08:37:43.545Z,99310.23
2023-04-03T08:40:15.456Z,99307.70
2023-04-03T08:43:07.264Z,99311.17
2023-04-03T08:45:39.066Z,99316.02
2023-04-03T08:48:10.166Z,99316.29
2023-04-03T08:50:44.003Z,99319.36
2023-04-03T08:53:15.712Z,99320.39
2023-04-03T08:55:48.085Z,99316.14
2023-04-03T08:58:21.106Z,99317.83
2023-04-03T09:00:51.521Z,99321.20
2023-04-03T09:03:22.090Z,99319.66
2023-04-03T09:05:52.889Z,99317.47
2023-04-03T09:08:34.308Z,99323.45
2023-04-03T09:11:08.574Z,99323.42
2023-04-03T09:13:47.145Z,99324.52
2023-04-03T09:16:29.708Z,99325.48
2023-04-03T09:19:09.283Z,99324.98
2023-04-03T09:21:39.669Z,99323.67
2023-04-03T09:24:08.876Z,99330.14
2023-04-03T09:27:12.139Z,99327.35
2023-04-03T09:29:44.480Z,99328.56
2023-04-03T09:32:50.627Z,99332.04
2023-04-03T09:35:36.301Z,99334.58
2023-04-03T09:38:12.975Z,99335.25
2023-04-03T09:40:45.758Z,99335.92
2023-04-03T09:43:25.449Z,99336.65
2023-04-03T09:45:54.512Z,99339.42
2023-04-03T09:48:24.527Z,99338.83
2023-04-03T09:51:02.643Z,99341.36
2023-04-03T09:53:44.755Z,99339.60
2023-04-03T09:56:18.056Z,99339.04
2023-04-03T09:58:51.155Z,99339.60
2023-04-03T10:01:31.023Z,99337.29
2023-04-03T10:04:26.755Z,99342.15
2023-04-03T10:06:56.044Z,99343.05
2023-04-03T10:09:32.717Z,99343.46
2023-04-03T10:12:10.497Z,99341.37
2023-04-03T10:14:58.927Z,99348.66
2023-04-03T10:17:57.854Z,99352.56
2023-04-03T10:20:40.963Z,99351.92
2023-04-03T10:23:21.421Z,99356.53
2023-04-03T10:25:52.467Z,99359.84
2023-04-03T10:28:28.304Z,99363.54
2023-04-03T10:31:08.036Z,99365.64
2023-04-03T10:33:52.671Z,99362.54
2023-04-03T10:36:38.257Z,99366.94
2023-04-03T10:39:13.255Z,99367.36
2023-04-03T10:42:13.370Z,99366.09
2023-04-03T10:45:16.650Z,99367.87
2023-04-03T10:48:11.294Z,99368.70
2023-04-03T10:51:29.311Z,99368.90
2023-04-03T10:54:17.000Z,99369.02
2023-04-03T10:57:04.542Z,99374.87
2023-04-03T10:59:45.361Z,99377.30
2023-04-03T11:02:33.487Z,99377.02
2023-04-03T11:05:06.354Z,99379.98
2023-04-03T11:07:43.811Z,99375.02
2023-04-03T11:10:42.145Z,99378.96
2023-04-03T11:13:15.180Z,99383.09
2023-04-03T11:15:47.590Z,99382.98
2023-04-03T11:18:46.098Z,99385.64
2023-04-03T11:21:48.575Z,99385.59
2023-04-03T11:24:23.410Z,99391.55
2023-04-03T11:26:51.775Z,99397.80
2023-04-03T11:29:34.205Z,99402.16
2023-04-03T11:32:13.051Z,99405.05
2023-04-03T11:34:44.444Z,99412.91
2023-04-03T11:37:39.073Z,99420.33
2023-04-03T11:40:27.745Z,99422.38
2023-04-03T11:43:06.038Z,99423.66
2023-04-03T11:45:39.264Z,99424.19
2023-04-03T11:48:25.034Z,99430.73
2023-04-03T11:50:53.600Z,99435.45
2023-04-03T11:53:40.823Z,99437.71
2023-04-03T11:56:29.208Z,99436.65
2023-04-03T11:59:13.415Z,99439.58
2023-04-03T12:01:57.800Z,99438.49
2023-04-03T12:04:28.015Z,99449.52
2023-04-03T12:07:23.416Z,99447.19
2023-04-03T12:09:52.502Z,99452.83
2023-04-03T12:12:31.380Z,99453.48
2023-04-03T12:15:25.514Z,99456.66
2023-04-03T12:17:53.919Z,99458.14
2023-04-03T12:20:50.741Z,99468.00
2023-04-03T12:23:28.506Z,99472.82
2023-04-03T12:26:22.947Z,99477.15
2023-04-03T12:28:50.985Z,99479.25
2023-04-03T12:31:20.007Z,99483.32
2023-04-03T12:34:24.274Z,99491.84
2023-04-03T12:36:58.653Z,99493.20
2023-04-03T12:39:34.832Z,99489.85
2023-04-03T12:42:18.117Z,99493.25
2023-04-03T12:45:13.879Z,99489.61
2023-04-03T12:47:45.571Z,99495.02
2023-04-03T12:50:36.673Z,99497.86
2023-04-03T12:53:07.260Z,99501.04
2023-04-03T12:55:36.252Z,99502.05
2023-04-03T12:58:43.137Z,99505.84
2023-04-03T13:01:13.308Z,99507.77
2023-04-03T13:03:46.495Z,99512.65
2023-04-03T13:06:28.704Z,99514.88
2023-04-03T13:09:22.992Z,99516.81
2023-04-03T13:11:53.347Z,99519.33
2023-04-03T13:14:23.041Z,99520.91
2023-04-03T13:17:11.891Z,99524.39
2023-04-03T13:19:43.021Z,99523.52
2023-04-03T13:22:27.476Z,99526.04
2023-04-03T13:24:56.349Z,99528.25
2023-04-03T13:27:25.045Z,99527.10
2023-04-03T13:29:55.155Z,99536.64
2023-04-03T13:32:24.875Z,99538.11
2023-04-03T13:34:52.961Z,99544.71
2023-04-03T13:37:28.386Z,99549.42
2023-04-03T13:40:08.860Z,99546.20
2023-04-03T13:42:39.076Z,99549.98
2023-04-03T13:45:15.532Z,99552.14
2023-04-03T13:47:44.796Z,99558.23
2023-04-03T13:50:25.433Z,99560.78
2023-04-03T13:53:01.758Z,99565.46
2023-04-03T14:03:53.276Z,99576.68
2023-04-03T14:06:21.177Z,99582.98
2023-04-03T14:08:49.340Z,99587.14
2023-04-03T14:11:18.979Z,99596.52
2023-04-03T14:13:46.672Z,99596.00
2023-04-03T14:16:20.474Z,99601.42
2023-04-03T14:18:48.461Z,99607.36
2023-04-03T14:21:16.218Z,99608.65
2023-04-03T14:23:43.728Z,99609.91
2023-04-03T14:26:16.951Z,99616.80
2023-04-03T14:30:00.515Z,99624.04
2023-04-03T14:32:29.869Z,99616.13
2023-04-03T14:34:59.399Z,99619.74
2023-04-03T14:37:30.440Z,99621.52
2023-04-03T14:39:59.517Z,99625.58
2023-04-03T14:42:31.011Z,99622.97
2023-04-03T14:45:00.529Z,99628.75
2023-04-03T14:47:31.723Z,99627.39
2023-04-03T14:50:02.278Z,99629.27
2023-04-03T14:52:33.246Z,99639.90
2023-04-03T14:55:02.155Z,99640.61
2023-04-03T14:57:30.773Z,99639.20
2023-04-03T15:00:00.056Z,99641.34
2023-04-03T15:02:32.840Z,99649.31
2023-04-03T15:05:05.145Z,99650.34
2023-04-03T15:07:35.431Z,99651.21
2023-04-03T15:10:28.136Z,99655.32
2023-04-03T15:12:57.278Z,99660.96
2023-04-03T15:15:26.064Z,99664.16
2023-04-03T15:17:55.822Z,99672.63
2023-04-03T15:20:25.982Z,99678.25
2023-04-03T15:22:54.577Z,99679.45
2023-04-03T15:25:22.806Z,99682.06
2023-04-03T15:27:51.284Z,99681.52
2023-04-03T15:30:19.708Z,99687.84
2023-04-03T15:32:48.881Z,99692.78
2023-04-03T15:35:17.032Z,99692.64
2023-04-03T15:37:48.889Z,99700.23
2023-04-03T15:40:17.727Z,99701.88
2023-04-03T15:42:46.577Z,99701.24
2023-04-03T15:45:16.857Z,99700.91
2023-04-03T15:47:45.559Z,99703.05
2023-04-03T15:50:13.809Z,99704.48
2023-04-03T15:52:42.320Z,99704.36
2023-04-03T15:55:11.073Z,99706.73
2023-04-03T16:00:13.382Z,99712.11
2023-04-03T16:02:43.978Z,99709.67
2023-04-03T16:05:12.498Z,99708.64
2023-04-03T16:07:41.231Z,99712.71
2023-04-03T16:10:10.932Z,99720.13
2023-04-03T16:12:39.785Z,99719.06
2023-04-03T16:15:08.382Z,99722.95
2023-04-03T16:17:38.281Z,99722.21
2023-04-03T16:20:07.668Z,99726.40
2023-04-03T16:22:36.370Z,99728.83
2023-04-03T16:25:06.829Z,99730.73
2023-04-03T16:27:36.116Z,99736.59
2023-04-03T16:30:05.036Z,99733.61
2023-04-03T16:32:43.793Z,99730.81
2023-04-03T16:35:12.155Z,99733.14
2023-04-03T16:37:40.726Z,99732.77
2023-04-03T16:40:10.302Z,99731.88
2023-04-03T16:42:38.587Z,99736.95
2023-04-03T16:45:08.601Z,99738.71
2023-04-03T16:47:37.158Z,99740.30
2023-04-03T16:50:08.789Z,99744.15
2023-04-03T16:52:37.635Z,99744.83
2023-04-03T16:55:07.470Z,99747.29
2023-04-03T16:57:38.390Z,99753.26
2023-04-03T17:00:08.293Z,99758.71
2023-04-03T17:02:38.354Z,99762.41
2023-04-03T17:05:07.965Z,99764.54
2023-04-03T17:07:36.367Z,99770.17
2023-04-03T17:12:52.544Z,99776.48
2023-04-03T17:15:21.244Z,99781.25
2023-04-03T17:17:50.527Z,99783.73
2023-04-03T17:20:19.044Z,99783.57
2023-04-03T17:22:47.362Z,99789.38
2023-04-03T17:25:15.956Z,99791.64
2023-04-03T17:27:44.180Z,99793.02
2023-04-03T17:30:13.275Z,99794.75
2023-04-03T17:32:41.899Z,99799.17
2023-04-03T17:35:11.781Z,99799.53
2023-04-03T17:37:40.544Z,99804.27
2023-04-03T17:40:09.855Z,99805.36
2023-04-03T17:42:38.144Z,99806.96
2023-04-03T17:45:07.487Z,99806.48
2023-04-03T17:47:36.420Z,99808.25
2023-04-03T17:50:06.174Z,99811.77
2023-04-03T17:52:34.373Z,99813.33
2023-04-03T17:55:03.818Z,99815.80
2023-04-03T17:57:32.220Z,99811.44
2023-04-03T18:05:10.941Z,99817.69
2023-04-03T18:07:39.736Z,99821.91
2023-04-03T18:10:09.137Z,99823.30
2023-04-03T18:12:37.517Z,99822.06
2023-04-03T18:15:07.398Z,99823.80
2023-04-03T18:17:36.260Z,99822.75
2023-04-03T18:20:13.234Z,99823.45
2023-04-03T18:22:43.535Z,99828.38
2023-04-03T18:25:12.587Z,99828.20
2023-04-03T18:27:41.602Z,99837.55
2023-04-03T18:30:13.852Z,99837.92
2023-04-03T18:32:43.808Z,99846.05
2023-04-03T18:35:12.495Z,99851.19
2023-04-03T18:37:40.725Z,99852.77
2023-04-03T18:40:10.114Z,99860.34
2023-04-03T18:42:39.088Z,99856.46
2023-04-03T18:45:08.280Z,99854.52
2023-04-03T18:47:38.321Z,99855.75
2023-04-03T18:50:08.202Z,99857.88
2023-04-03T18:52:37.736Z,99855.77
2023-04-03T18:55:06.752Z,99857.54
2023-04-03T18:57:35.040Z,99862.46
2023-04-03T19:00:04.876Z,99861.94
2023-04-03T19:02:37.205Z,99864.39
2023-04-03T19:05:06.914Z,99867.38
2023-04-03T19:07:36.642Z,99862.09
2023-04-03T19:10:05.537Z,99864.70
2023-04-03T19:12:35.506Z,99866.79
2023-04-03T19:15:04.792Z,99868.72
2023-04-03T19:17:33.711Z,99871.01
2023-04-03T19:20:02.529Z,99871.55
2023-04-03T19:22:31.486Z,99877.36
2023-04-03T19:24:59.756Z,99875.44
2023-04-03T19:27:28.624Z,99877.19
2023-04-03T19:29:57.027Z,99877.55
2023-04-03T19:32:25.429Z,99874.91
2023-04-03T19:34:53.896Z,99875.27
2023-04-03T19:37:23.496Z,99878.27
2023-04-03T19:39:51.861Z,99875.29
2023-04-03T19:42:20.637Z,99874.21
2023-04-03T19:44:49.580Z,99866.81
2023-04-03T19:47:19.686Z,99864.19
2023-04-03T19:49:48.576Z,99859.11
2023-04-03T19:52:17.566Z,99859.30
2023-04-03T19:54:46.268Z,99859.48
2023-04-03T19:57:15.993Z,99865.45
2023-04-03T19:59:44.466Z,99864.73
2023-04-03T20:02:12.918Z,99864.20
2023-04-03T20:04:41.474Z,99866.50
2023-04-03T20:07:09.995Z,99869.31
2023-04-03T20:09:38.379Z,99872.30
2023-04-03T20:12:09.626Z,99874.23
2023-04-03T20:14:39.612Z,99877.94
2023-04-03T20:17:08.786Z,99877.39
2023-04-03T20:19:39.338Z,99871.77
2023-04-03T20:22:07.430Z,99872.28
2023-04-03T20:24:35.672Z,99870.90
2023-04-03T20:27:03.930Z,99871.24
2023-04-03T20:29:32.497Z,99876.73
2023-04-03T20:32:00.857Z,99886.06
2023-04-03T20:34:29.145Z,99890.64
2023-04-03T20:36:58.818Z,99891.52
2023-04-03T20:39:28.380Z,99899.25
2023-04-03T20:41:56.955Z,99902.23
2023-04-03T20:44:25.234Z,99910.86
2023-04-03T20:46:54.214Z,99912.95
2023-04-03T20:49:23.135Z,99915.21
2023-04-03T20:51:52.656Z,99905.51
2023-04-03T20:54:21.842Z,99891.73
2023-04-03T20:56:50.575Z,99880.98
2023-04-03T20:59:20.630Z,99881.17
2023-04-03T21:01:50.165Z,99888.05
2023-04-03T21:04:20.947Z,99899.70
2023-04-03T21:07:27.742Z,99907.13
2023-04-03T21:10:34.109Z,99911.17
2023-04-03T21:13:40.703Z,99910.11
2023-04-03T21:16:09.047Z,99912.23
2023-04-03T21:19:20.020Z,99913.45
2023-04-03T21:21:49.167Z,99916.27
2023-04-03T21:24:17.596Z,99919.27
2023-04-03T21:26:46.177Z,99925.06
2023-04-03T21:29:14.429Z,99934.05
2023-04-03T21:31:59.475Z,99937.73
2023-04-03T21:34:29.328Z,99935.25
2023-04-03T21:37:04.822Z,99935.06
2023-04-03T21:39:33.641Z,99933.29
2023-04-03T21:42:01.964Z,99933.66
2023-04-03T21:44:30.496Z,99936.30
2023-04-03T21:46:59.947Z,99942.62
2023-04-03T21:49:29.782Z,99941.73
2023-04-03T21:51:57.891Z,99944.89
2023-04-03T21:54:26.404Z,99941.72
2023-04-03T21:56:54.652Z,99942.60
2023-04-03T21:59:23.965Z,99948.76
2023-04-03T22:01:54.746Z,99946.80
2023-04-03T22:04:23.877Z,99945.20
2023-04-03T22:06:53.595Z,99949.44
2023-04-03T22:09:21.740Z,99943.45
2023-04-03T22:11:50.271Z,99944.67
2023-04-03T22:14:18.667Z,99943.65
2023-04-03T22:16:46.921Z,99942.44
2023-04-03T22:19:15.310Z,99942.80
2023-04-03T22:21:47.648Z,99942.64
2023-04-03T22:24:18.330Z,99941.05
2023-04-03T22:26:46.690Z,99940.36
2023-04-03T22:29:15.141Z,99938.98
2023-04-03T22:31:43.352Z,99941.63
2023-04-03T22:34:11.878Z,99937.21
2023-04-03T22:36:43.280Z,99931.06
2023-04-03T22:39:13.504Z,99927.37
2023-04-03T22:41:45.358Z,99923.14
2023-04-03T22:44:14.053Z,99926.88
2023-04-03T22:46:43.014Z,99929.17
2023-04-03T22:49:11.339Z,99922.52
2023-04-03T22:51:39.490Z,99921.80
2023-04-03T22:54:08.380Z,99922.52
2023-04-03T22:56:36.601Z,99924.45
2023-04-03T22:59:04.755Z,99926.40
2023-04-03T23:01:33.384Z,99925.69
2023-04-03T23:04:02.610Z,99923.92
2023-04-03T23:06:31.339Z,99929.23
2023-04-03T23:09:01.433Z,99935.21
2023-04-03T23:11:29.693Z,99933.25
2023-04-03T23:13:59.923Z,99931.85
2023-04-03T23:16:28.660Z,99928.15
2023-04-03T23:18:57.416Z,99934.86
2023-04-03T23:21:26.404Z,99933.98
2023-04-03T23:23:54.608Z,99930.98
2023-04-03T23:26:24.022Z,99929.93
2023-04-03T23:28:52.322Z,99927.27
2023-04-03T23:31:20.540Z,99927.10
2023-04-03T23:33:48.893Z,99925.52
2023-04-03T23:36:17.185Z,99922.34
2023-04-03T23:38:49.812Z,99920.23
2023-04-03T23:41:18.087Z,99921.82
2023-04-03T23:43:47.663Z,99919.52
2023-04-03T23:46:15.820Z,99920.94
2023-04-03T23:48:44.379Z,99921.42
2023-04-03T23:51:13.039Z,99916.50
2023-04-03T23:53:42.307Z,99915.48
2023-04-03T23:56:13.297Z,99903.68
2023-04-03T23:58:43.173Z,99914.77
